• Join FlightAware (Why Join?)
  • Login
  • US Flag 
07:17AM EDT


 

Airport Tracker/Info


-or-


 

Live Flight TrackerFlight Track Log ✈ SVA1485 ✈ 19-Mar-2014 ✈ OEPA / AQI - OEJN / JED

Flight Track Log - Related Links

Times and Time Zones

All times are in EDT time to prevent confusion due to time zone crossing. See the SVA1485 flight status page for this flight to view local times or setup timezone preferences in your user account.

Time Position Orientation Groundspeed Altitude Reporting Facility
EDT Latitude Longitude Course Direction KTS MPH feet Rate Location/Type
10:31AM 28.0881 45.8451 225° Southwest  Level Estimated
10:32AM 28.0262 45.7753 225° Southwest  Level Estimated
10:33AM 27.9643 45.7056 225° Southwest  Level Estimated
10:34AM 27.9024 45.6359 225° Southwest  Level Estimated
10:35AM 27.8405 45.5664 225° Southwest  Level Estimated
10:36AM 27.7784 45.4969 225° Southwest  Level Estimated
10:37AM 27.7164 45.4275 225° Southwest  Level Estimated
10:38AM 27.6543 45.3582 225° Southwest  Level Estimated
10:39AM 27.5922 45.2889 225° Southwest  Level Estimated
10:40AM 27.5301 45.2198 225° Southwest  Level Estimated
10:41AM 27.4679 45.1507 225° Southwest  Level Estimated
10:42AM 27.4057 45.0817 225° Southwest  Level Estimated
10:43AM 27.3435 45.0127 225° Southwest  Level Estimated
10:44AM 27.2812 44.9439 225° Southwest  Level Estimated
10:45AM 27.2189 44.8751 224° Southwest  Level Estimated
10:46AM 27.1565 44.8064 224° Southwest  Level Estimated
10:47AM 27.0942 44.7378 224° Southwest  Level Estimated
10:48AM 27.0318 44.6693 224° Southwest  Level Estimated
10:49AM 26.9693 44.6008 224° Southwest  Level Estimated
10:50AM 26.9068 44.5324 224° Southwest  Level Estimated
10:51AM 26.8443 44.4641 224° Southwest  Level Estimated
10:52AM 26.7818 44.3958 224° Southwest  Level Estimated
10:53AM 26.7192 44.3277 224° Southwest  Level Estimated
10:54AM 26.6566 44.2596 224° Southwest  Level Estimated
10:55AM 26.5940 44.1916 224° Southwest  Level Estimated
10:56AM 26.5313 44.1236 224° Southwest  Level Estimated
10:57AM 26.4686 44.0557 224° Southwest  Level Estimated
10:58AM 26.4059 43.9879 224° Southwest  Level Estimated
10:59AM 26.3431 43.9202 224° Southwest  Level Estimated
11:00AM 26.2803 43.8526 224° Southwest  Level Estimated
11:01AM 26.2175 43.7850 224° Southwest  Level Estimated
11:02AM 26.1546 43.7175 224° Southwest  Level Estimated
11:03AM 26.0917 43.6501 224° Southwest  Level Estimated
11:04AM 26.0288 43.5827 224° Southwest  Level Estimated
11:05AM 25.9658 43.5154 224° Southwest  Level Estimated
11:06AM 25.9028 43.4482 224° Southwest  Level Estimated
11:07AM 25.8398 43.3811 224° Southwest  Level Estimated
11:08AM 25.7768 43.3140 224° Southwest  Level Estimated
11:09AM 25.7137 43.2470 224° Southwest  Level Estimated
11:10AM 25.6506 43.1801 224° Southwest  Level Estimated
11:11AM 25.5874 43.1132 224° Southwest  Level Estimated
11:12AM 25.5243 43.0465 224° Southwest  Level Estimated
11:13AM 25.4611 42.9798 224° Southwest  Level Estimated
11:14AM 25.3978 42.9131 224° Southwest  Level Estimated
11:15AM 25.3346 42.8465 224° Southwest  Level Estimated
11:16AM 25.2713 42.7800 224° Southwest  Level Estimated
11:17AM 25.2080 42.7136 224° Southwest  Level Estimated
11:18AM 25.1446 42.6472 223° Southwest  Level Estimated
11:19AM 25.0812 42.5809 223° Southwest  Level Estimated
11:20AM 25.0178 42.5147 223° Southwest  Level Estimated
11:21AM 24.9544 42.4485 223° Southwest  Level Estimated
11:22AM 24.8909 42.3824 223° Southwest  Level Estimated
11:23AM 24.8274 42.3164 223° Southwest  Level Estimated
11:24AM 24.7639 42.2505 223° Southwest  Level Estimated
11:25AM 24.7003 42.1846 223° Southwest  Level Estimated
11:26AM 24.6368 42.1188 223° Southwest  Level Estimated
11:27AM 24.5731 42.0530 223° Southwest  Level Estimated
11:28AM 24.5095 41.9873 223° Southwest  Level Estimated
11:29AM 24.4458 41.9217 223° Southwest  Level Estimated
11:30AM 24.3821 41.8561 223° Southwest  Level Estimated
11:31AM 24.3184 41.7906 223° Southwest  Level Estimated
11:32AM 24.2547 41.7252 223° Southwest  Level Estimated
11:33AM 24.1909 41.6599 223° Southwest  Level Estimated
11:34AM 24.1271 41.5946 223° Southwest  Level Estimated
11:35AM 24.0632 41.5293 223° Southwest  Level Estimated
11:36AM 23.9994 41.4642 223° Southwest  Level Estimated
11:37AM 23.9355 41.3991 223° Southwest  Level Estimated
11:38AM 23.8715 41.3340 223° Southwest  Level Estimated
11:39AM 23.8076 41.2691 223° Southwest  Level Estimated
11:40AM 23.7436 41.2042 223° Southwest  Level Estimated
11:41AM 23.6796 41.1393 223° Southwest  Level Estimated
11:42AM 23.6156 41.0746 223° Southwest  Level Estimated
11:43AM 23.5515 41.0098 223° Southwest  Level Estimated
11:44AM 23.4875 40.9452 223° Southwest  Level Estimated
11:45AM 23.4233 40.8806 223° Southwest  Level Estimated
11:46AM 23.3592 40.8161 223° Southwest  Level Estimated
11:47AM 23.2950 40.7516 223° Southwest  Level Estimated
11:48AM 23.2309 40.6872 223° Southwest  Level Estimated
11:49AM 23.1667 40.6229 223° Southwest  Level Estimated
11:50AM 23.1024 40.5586 223° Southwest  Level Estimated
11:51AM 23.0382 40.4944 223° Southwest  Level Estimated
11:52AM 22.9739 40.4302 223° Southwest  Level Estimated
11:53AM 22.9095 40.3661 223° Southwest  Level Estimated
11:54AM 22.8452 40.3021 223° Southwest  Level Estimated
11:55AM 22.7808 40.2381 223° Southwest  Level Estimated
11:56AM 22.7164 40.1742 222° Southwest  Level Estimated
11:57AM 22.6520 40.1103 222° Southwest  Level Estimated
11:58AM 22.5876 40.0466 222° Southwest  Level Estimated
11:59AM 22.5231 39.9828 222° Southwest  Level Estimated
12:00PM 22.4586 39.9191 222° Southwest  Level Estimated
12:01PM 22.3941 39.8555 222° Southwest  Level Estimated
12:02PM 22.3295 39.7920 222° Southwest  Level Estimated
12:03PM 22.2650 39.7285 222° Southwest  Level Estimated
12:04PM 22.2004 39.6650 222° Southwest  Level Estimated
12:05PM 22.1357 39.6017 222° Southwest  Level Estimated
12:06PM 22.0711 39.5383 222° Southwest  Level Estimated
12:07PM 22.0064 39.4751 222° Southwest  Level Estimated
12:08PM 21.9417 39.4119 222° Southwest  Level Estimated
12:09PM 21.8770 39.3487 222° Southwest  Level Estimated
12:10PM 21.8123 39.2856 222° Southwest  Level Estimated
12:11PM 21.7475 39.2226 222° Southwest  Level Estimated
12:12PM 21.6827 39.1596 222° Southwest  Level Estimated
12:13PM 21.6796 39.1565 222° Southwest  Level Estimated
12:14PM 21.6796 39.1565 North  Level Estimated
12:15PM 21.6796 39.1565 North  Level Estimated
12:16PM 21.6796 39.1565 North  Level Estimated
12:17PM 21.6796 39.1565 North  Level Estimated
12:18PM 21.6796 39.1565 North  Level Estimated
12:19PM 21.6796 39.1565 North  Level Estimated
12:20PM 21.6796 39.1565 North  Level Estimated
12:21PM 21.6796 39.1565 North  Level Estimated
12:22PM 21.6796 39.1565 North  Level Estimated
12:23PM 21.6796 39.1565 North  Level Estimated
12:24PM 21.6796 39.1565 North  Level Estimated
12:25PM 21.6796 39.1565 North  Level Estimated
12:26PM 21.6796 39.1565 North  Level Estimated
12:27PM 21.6796 39.1565 North  Level Estimated
12:28PM 21.6796 39.1565 North  Level Estimated